sensor_id;sensor_type;location;lat;lon;timestamp;P1;durP1;ratioP1;P2;durP2;ratioP2
8421;SDS011;4248;48.196;10.924;2023-05-20T00:00:44;7.83;;;4.73;;
8421;SDS011;4248;48.196;10.924;2023-05-20T00:03:13;8.00;;;4.43;;
8421;SDS011;4248;48.196;10.924;2023-05-20T00:05:39;5.93;;;4.10;;
8421;SDS011;4248;48.196;10.924;2023-05-20T00:08:05;5.37;;;4.00;;
8421;SDS011;4248;48.196;10.924;2023-05-20T00:10:33;5.90;;;4.43;;
8421;SDS011;4248;48.196;10.924;2023-05-20T00:12:59;8.40;;;4.73;;
8421;SDS011;4248;48.196;10.924;2023-05-20T00:15:25;7.60;;;5.10;;
8421;SDS011;4248;48.196;10.924;2023-05-20T00:17:51;7.50;;;4.87;;
8421;SDS011;4248;48.196;10.924;2023-05-20T00:20:17;9.77;;;5.33;;
8421;SDS011;4248;48.196;10.924;2023-05-20T00:22:42;6.40;;;5.00;;
8421;SDS011;4248;48.196;10.924;2023-05-20T00:25:08;8.47;;;5.00;;
8421;SDS011;4248;48.196;10.924;2023-05-20T00:27:34;8.20;;;5.47;;
8421;SDS011;4248;48.196;10.924;2023-05-20T00:30:00;9.23;;;4.90;;
8421;SDS011;4248;48.196;10.924;2023-05-20T00:32:26;7.53;;;4.97;;
8421;SDS011;4248;48.196;10.924;2023-05-20T00:34:55;8.87;;;5.40;;
8421;SDS011;4248;48.196;10.924;2023-05-20T00:37:22;5.83;;;4.60;;
8421;SDS011;4248;48.196;10.924;2023-05-20T00:39:48;12.53;;;5.90;;
8421;SDS011;4248;48.196;10.924;2023-05-20T00:42:20;7.73;;;5.13;;
8421;SDS011;4248;48.196;10.924;2023-05-20T00:44:50;7.03;;;4.90;;
8421;SDS011;4248;48.196;10.924;2023-05-20T00:47:16;8.03;;;5.73;;
8421;SDS011;4248;48.196;10.924;2023-05-20T00:49:46;8.87;;;5.07;;
8421;SDS011;4248;48.196;10.924;2023-05-20T00:52:14;8.70;;;5.60;;
8421;SDS011;4248;48.196;10.924;2023-05-20T00:54:40;10.60;;;5.00;;
8421;SDS011;4248;48.196;10.924;2023-05-20T00:57:06;10.27;;;5.43;;
8421;SDS011;4248;48.196;10.924;2023-05-20T00:59:35;7.00;;;5.50;;
8421;SDS011;4248;48.196;10.924;2023-05-20T01:02:01;9.03;;;5.10;;
8421;SDS011;4248;48.196;10.924;2023-05-20T01:04:29;7.17;;;5.17;;
8421;SDS011;4248;48.196;10.924;2023-05-20T01:06:55;7.27;;;5.13;;
8421;SDS011;4248;48.196;10.924;2023-05-20T01:09:22;7.00;;;5.13;;
8421;SDS011;4248;48.196;10.924;2023-05-20T01:11:58;9.37;;;5.30;;
8421;SDS011;4248;48.196;10.924;2023-05-20T01:14:32;10.70;;;5.03;;
8421;SDS011;4248;48.196;10.924;2023-05-20T01:17:01;7.40;;;5.50;;
8421;SDS011;4248;48.196;10.924;2023-05-20T01:22:02;7.60;;;5.20;;
8421;SDS011;4248;48.196;10.924;2023-05-20T01:24:31;9.40;;;5.90;;
8421;SDS011;4248;48.196;10.924;2023-05-20T01:26:56;11.67;;;5.80;;
8421;SDS011;4248;48.196;10.924;2023-05-20T01:29:23;9.53;;;5.70;;
8421;SDS011;4248;48.196;10.924;2023-05-20T01:31:49;9.07;;;5.30;;
8421;SDS011;4248;48.196;10.924;2023-05-20T01:34:17;8.20;;;5.57;;
8421;SDS011;4248;48.196;10.924;2023-05-20T01:36:43;7.67;;;5.30;;
8421;SDS011;4248;48.196;10.924;2023-05-20T01:39:10;8.00;;;5.50;;
8421;SDS011;4248;48.196;10.924;2023-05-20T01:41:37;9.63;;;5.37;;
8421;SDS011;4248;48.196;10.924;2023-05-20T01:44:03;9.43;;;5.70;;
8421;SDS011;4248;48.196;10.924;2023-05-20T01:46:32;9.83;;;5.67;;
8421;SDS011;4248;48.196;10.924;2023-05-20T01:48:58;9.77;;;6.07;;
8421;SDS011;4248;48.196;10.924;2023-05-20T01:51:24;9.50;;;5.50;;
8421;SDS011;4248;48.196;10.924;2023-05-20T01:53:50;9.00;;;6.30;;
8421;SDS011;4248;48.196;10.924;2023-05-20T01:56:15;7.20;;;5.67;;
8421;SDS011;4248;48.196;10.924;2023-05-20T01:58:41;7.37;;;5.70;;
8421;SDS011;4248;48.196;10.924;2023-05-20T02:01:06;9.30;;;5.80;;
8421;SDS011;4248;48.196;10.924;2023-05-20T02:03:32;9.50;;;6.30;;
8421;SDS011;4248;48.196;10.924;2023-05-20T02:05:58;8.73;;;5.90;;
8421;SDS011;4248;48.196;10.924;2023-05-20T02:08:23;10.13;;;5.83;;
8421;SDS011;4248;48.196;10.924;2023-05-20T02:10:49;14.50;;;6.20;;
8421;SDS011;4248;48.196;10.924;2023-05-20T02:13:14;7.80;;;5.57;;
8421;SDS011;4248;48.196;10.924;2023-05-20T02:15:40;9.63;;;5.70;;
8421;SDS011;4248;48.196;10.924;2023-05-20T02:18:06;10.63;;;6.00;;
8421;SDS011;4248;48.196;10.924;2023-05-20T02:20:34;10.97;;;6.47;;
8421;SDS011;4248;48.196;10.924;2023-05-20T02:23:00;9.40;;;6.17;;
8421;SDS011;4248;48.196;10.924;2023-05-20T02:25:27;7.87;;;6.00;;
8421;SDS011;4248;48.196;10.924;2023-05-20T02:27:52;8.70;;;5.77;;
8421;SDS011;4248;48.196;10.924;2023-05-20T02:30:18;7.90;;;5.90;;
8421;SDS011;4248;48.196;10.924;2023-05-20T02:32:43;9.20;;;5.77;;
8421;SDS011;4248;48.196;10.924;2023-05-20T02:35:09;11.17;;;6.10;;
8421;SDS011;4248;48.196;10.924;2023-05-20T02:37:35;11.50;;;6.10;;
8421;SDS011;4248;48.196;10.924;2023-05-20T02:40:02;8.80;;;6.40;;
8421;SDS011;4248;48.196;10.924;2023-05-20T02:42:29;12.30;;;6.37;;
8421;SDS011;4248;48.196;10.924;2023-05-20T02:44:54;11.13;;;6.50;;
8421;SDS011;4248;48.196;10.924;2023-05-20T02:47:22;8.13;;;6.13;;
8421;SDS011;4248;48.196;10.924;2023-05-20T02:49:49;11.57;;;7.23;;
8421;SDS011;4248;48.196;10.924;2023-05-20T02:52:14;9.07;;;7.00;;
8421;SDS011;4248;48.196;10.924;2023-05-20T02:54:40;10.20;;;6.07;;
8421;SDS011;4248;48.196;10.924;2023-05-20T02:57:06;9.60;;;6.30;;
8421;SDS011;4248;48.196;10.924;2023-05-20T02:59:31;8.57;;;6.40;;
8421;SDS011;4248;48.196;10.924;2023-05-20T03:01:57;10.10;;;6.47;;
8421;SDS011;4248;48.196;10.924;2023-05-20T03:04:22;13.30;;;6.27;;
8421;SDS011;4248;48.196;10.924;2023-05-20T03:06:49;14.67;;;6.87;;
8421;SDS011;4248;48.196;10.924;2023-05-20T03:09:16;9.30;;;6.90;;
8421;SDS011;4248;48.196;10.924;2023-05-20T03:11:43;9.87;;;6.60;;
8421;SDS011;4248;48.196;10.924;2023-05-20T03:14:09;11.27;;;6.60;;
8421;SDS011;4248;48.196;10.924;2023-05-20T03:16:34;10.40;;;7.17;;
8421;SDS011;4248;48.196;10.924;2023-05-20T03:19:00;11.67;;;7.07;;
8421;SDS011;4248;48.196;10.924;2023-05-20T03:21:26;9.80;;;7.00;;
8421;SDS011;4248;48.196;10.924;2023-05-20T03:23:52;12.30;;;7.50;;
8421;SDS011;4248;48.196;10.924;2023-05-20T03:26:17;10.50;;;6.97;;
8421;SDS011;4248;48.196;10.924;2023-05-20T03:28:43;11.20;;;8.00;;
8421;SDS011;4248;48.196;10.924;2023-05-20T03:31:08;13.23;;;8.37;;
8421;SDS011;4248;48.196;10.924;2023-05-20T03:33:34;15.57;;;8.60;;
8421;SDS011;4248;48.196;10.924;2023-05-20T03:36:00;12.20;;;7.93;;
8421;SDS011;4248;48.196;10.924;2023-05-20T03:38:26;14.60;;;8.13;;
8421;SDS011;4248;48.196;10.924;2023-05-20T03:40:51;12.17;;;8.53;;
8421;SDS011;4248;48.196;10.924;2023-05-20T03:43:17;12.97;;;7.80;;
8421;SDS011;4248;48.196;10.924;2023-05-20T03:45:42;18.03;;;9.23;;
8421;SDS011;4248;48.196;10.924;2023-05-20T03:48:08;16.03;;;9.47;;
8421;SDS011;4248;48.196;10.924;2023-05-20T03:50:33;26.17;;;15.10;;
8421;SDS011;4248;48.196;10.924;2023-05-20T03:52:59;25.13;;;14.00;;
8421;SDS011;4248;48.196;10.924;2023-05-20T03:55:25;42.93;;;23.93;;
8421;SDS011;4248;48.196;10.924;2023-05-20T03:57:51;29.47;;;15.30;;
8421;SDS011;4248;48.196;10.924;2023-05-20T04:00:17;18.20;;;12.80;;
8421;SDS011;4248;48.196;10.924;2023-05-20T04:02:43;18.03;;;10.07;;
8421;SDS011;4248;48.196;10.924;2023-05-20T04:05:08;16.10;;;10.03;;
8421;SDS011;4248;48.196;10.924;2023-05-20T04:07:34;15.80;;;10.40;;
8421;SDS011;4248;48.196;10.924;2023-05-20T04:10:00;14.87;;;11.10;;
8421;SDS011;4248;48.196;10.924;2023-05-20T04:12:26;14.20;;;9.87;;
8421;SDS011;4248;48.196;10.924;2023-05-20T04:14:56;19.20;;;10.67;;
8421;SDS011;4248;48.196;10.924;2023-05-20T04:17:22;16.87;;;10.20;;
8421;SDS011;4248;48.196;10.924;2023-05-20T04:19:47;14.57;;;9.37;;
8421;SDS011;4248;48.196;10.924;2023-05-20T04:22:13;17.03;;;10.37;;
8421;SDS011;4248;48.196;10.924;2023-05-20T04:24:39;13.90;;;10.17;;
8421;SDS011;4248;48.196;10.924;2023-05-20T04:27:04;17.97;;;10.97;;
8421;SDS011;4248;48.196;10.924;2023-05-20T04:29:30;21.53;;;10.80;;
8421;SDS011;4248;48.196;10.924;2023-05-20T04:31:58;13.67;;;10.40;;
8421;SDS011;4248;48.196;10.924;2023-05-20T04:34:27;21.47;;;11.63;;
8421;SDS011;4248;48.196;10.924;2023-05-20T04:36:53;18.53;;;10.60;;
8421;SDS011;4248;48.196;10.924;2023-05-20T04:39:19;16.93;;;10.83;;
8421;SDS011;4248;48.196;10.924;2023-05-20T04:41:44;15.77;;;11.33;;
8421;SDS011;4248;48.196;10.924;2023-05-20T04:44:12;17.00;;;10.80;;
8421;SDS011;4248;48.196;10.924;2023-05-20T04:46:38;20.70;;;11.77;;
8421;SDS011;4248;48.196;10.924;2023-05-20T04:49:04;21.10;;;12.13;;
8421;SDS011;4248;48.196;10.924;2023-05-20T04:51:29;21.43;;;13.33;;
8421;SDS011;4248;48.196;10.924;2023-05-20T04:53:55;20.03;;;12.67;;
8421;SDS011;4248;48.196;10.924;2023-05-20T04:56:22;20.00;;;13.37;;
8421;SDS011;4248;48.196;10.924;2023-05-20T04:58:48;22.97;;;14.50;;
8421;SDS011;4248;48.196;10.924;2023-05-20T05:01:13;37.73;;;18.87;;
8421;SDS011;4248;48.196;10.924;2023-05-20T05:03:39;30.37;;;16.93;;
8421;SDS011;4248;48.196;10.924;2023-05-20T05:06:05;27.40;;;14.17;;
8421;SDS011;4248;48.196;10.924;2023-05-20T05:08:30;25.57;;;15.03;;
8421;SDS011;4248;48.196;10.924;2023-05-20T05:10:56;31.17;;;16.43;;
8421;SDS011;4248;48.196;10.924;2023-05-20T05:13:21;27.77;;;16.97;;
8421;SDS011;4248;48.196;10.924;2023-05-20T05:15:47;31.47;;;16.77;;
8421;SDS011;4248;48.196;10.924;2023-05-20T05:18:12;29.77;;;15.97;;
8421;SDS011;4248;48.196;10.924;2023-05-20T05:20:42;27.13;;;17.87;;
8421;SDS011;4248;48.196;10.924;2023-05-20T05:23:07;31.73;;;16.50;;
8421;SDS011;4248;48.196;10.924;2023-05-20T05:25:33;29.83;;;15.10;;
8421;SDS011;4248;48.196;10.924;2023-05-20T05:27:59;25.23;;;14.30;;
8421;SDS011;4248;48.196;10.924;2023-05-20T05:30:24;29.27;;;15.23;;
8421;SDS011;4248;48.196;10.924;2023-05-20T05:32:50;25.83;;;16.40;;
8421;SDS011;4248;48.196;10.924;2023-05-20T05:35:16;30.67;;;15.13;;
8421;SDS011;4248;48.196;10.924;2023-05-20T05:37:42;30.07;;;17.40;;
8421;SDS011;4248;48.196;10.924;2023-05-20T05:40:07;32.80;;;17.37;;
8421;SDS011;4248;48.196;10.924;2023-05-20T05:42:33;28.67;;;17.17;;
8421;SDS011;4248;48.196;10.924;2023-05-20T05:44:59;29.03;;;15.97;;
8421;SDS011;4248;48.196;10.924;2023-05-20T05:47:24;34.03;;;17.47;;
8421;SDS011;4248;48.196;10.924;2023-05-20T05:49:56;30.13;;;15.80;;
8421;SDS011;4248;48.196;10.924;2023-05-20T05:52:22;27.43;;;16.57;;
8421;SDS011;4248;48.196;10.924;2023-05-20T05:54:47;26.43;;;15.23;;
8421;SDS011;4248;48.196;10.924;2023-05-20T05:57:13;31.90;;;15.93;;
8421;SDS011;4248;48.196;10.924;2023-05-20T05:59:39;32.00;;;16.80;;
8421;SDS011;4248;48.196;10.924;2023-05-20T06:02:04;25.03;;;15.40;;
8421;SDS011;4248;48.196;10.924;2023-05-20T06:04:30;22.87;;;15.03;;
8421;SDS011;4248;48.196;10.924;2023-05-20T06:06:56;29.00;;;18.27;;
8421;SDS011;4248;48.196;10.924;2023-05-20T06:09:22;26.13;;;15.00;;
8421;SDS011;4248;48.196;10.924;2023-05-20T06:11:47;24.50;;;14.40;;
8421;SDS011;4248;48.196;10.924;2023-05-20T06:14:13;25.40;;;14.23;;
8421;SDS011;4248;48.196;10.924;2023-05-20T06:16:38;26.77;;;15.73;;
8421;SDS011;4248;48.196;10.924;2023-05-20T06:19:04;23.10;;;15.13;;
8421;SDS011;4248;48.196;10.924;2023-05-20T06:21:30;23.67;;;14.90;;
8421;SDS011;4248;48.196;10.924;2023-05-20T06:23:56;23.77;;;15.57;;
8421;SDS011;4248;48.196;10.924;2023-05-20T06:26:22;23.40;;;15.30;;
8421;SDS011;4248;48.196;10.924;2023-05-20T06:28:47;23.93;;;15.47;;
8421;SDS011;4248;48.196;10.924;2023-05-20T06:31:13;26.20;;;16.40;;
8421;SDS011;4248;48.196;10.924;2023-05-20T06:33:38;25.13;;;17.17;;
8421;SDS011;4248;48.196;10.924;2023-05-20T06:36:05;29.50;;;16.73;;
8421;SDS011;4248;48.196;10.924;2023-05-20T06:38:30;26.87;;;15.93;;
8421;SDS011;4248;48.196;10.924;2023-05-20T06:40:56;25.00;;;16.43;;
8421;SDS011;4248;48.196;10.924;2023-05-20T06:43:22;23.90;;;15.83;;
8421;SDS011;4248;48.196;10.924;2023-05-20T06:45:47;25.87;;;16.47;;
8421;SDS011;4248;48.196;10.924;2023-05-20T06:48:13;25.83;;;16.07;;
8421;SDS011;4248;48.196;10.924;2023-05-20T06:50:38;27.10;;;16.70;;
8421;SDS011;4248;48.196;10.924;2023-05-20T06:53:04;25.40;;;17.47;;
8421;SDS011;4248;48.196;10.924;2023-05-20T06:55:29;22.13;;;16.13;;
8421;SDS011;4248;48.196;10.924;2023-05-20T06:57:55;26.20;;;16.60;;
8421;SDS011;4248;48.196;10.924;2023-05-20T07:00:20;28.97;;;17.40;;
8421;SDS011;4248;48.196;10.924;2023-05-20T07:02:46;26.30;;;16.67;;
8421;SDS011;4248;48.196;10.924;2023-05-20T07:05:12;31.33;;;17.63;;
8421;SDS011;4248;48.196;10.924;2023-05-20T07:07:37;23.00;;;15.17;;
8421;SDS011;4248;48.196;10.924;2023-05-20T07:10:04;24.70;;;15.60;;
8421;SDS011;4248;48.196;10.924;2023-05-20T07:12:30;27.70;;;15.90;;
8421;SDS011;4248;48.196;10.924;2023-05-20T07:14:56;23.40;;;16.20;;
8421;SDS011;4248;48.196;10.924;2023-05-20T07:17:22;25.17;;;15.70;;
8421;SDS011;4248;48.196;10.924;2023-05-20T07:19:48;26.37;;;15.50;;
8421;SDS011;4248;48.196;10.924;2023-05-20T07:22:14;22.00;;;14.43;;
8421;SDS011;4248;48.196;10.924;2023-05-20T07:24:39;23.53;;;14.53;;
8421;SDS011;4248;48.196;10.924;2023-05-20T07:27:05;21.53;;;13.67;;
8421;SDS011;4248;48.196;10.924;2023-05-20T07:29:31;21.43;;;14.00;;
8421;SDS011;4248;48.196;10.924;2023-05-20T07:31:56;19.93;;;14.40;;
8421;SDS011;4248;48.196;10.924;2023-05-20T07:34:22;23.07;;;13.77;;
8421;SDS011;4248;48.196;10.924;2023-05-20T07:36:47;20.03;;;13.90;;
8421;SDS011;4248;48.196;10.924;2023-05-20T07:39:14;24.37;;;14.13;;
8421;SDS011;4248;48.196;10.924;2023-05-20T07:41:39;21.67;;;14.63;;
8421;SDS011;4248;48.196;10.924;2023-05-20T07:44:05;18.87;;;13.93;;
8421;SDS011;4248;48.196;10.924;2023-05-20T07:46:33;27.00;;;14.53;;
8421;SDS011;4248;48.196;10.924;2023-05-20T07:48:59;19.33;;;13.23;;
8421;SDS011;4248;48.196;10.924;2023-05-20T07:51:26;25.53;;;15.67;;
8421;SDS011;4248;48.196;10.924;2023-05-20T07:53:51;21.40;;;13.53;;
8421;SDS011;4248;48.196;10.924;2023-05-20T07:56:17;18.13;;;12.40;;
8421;SDS011;4248;48.196;10.924;2023-05-20T07:58:42;21.23;;;13.70;;
8421;SDS011;4248;48.196;10.924;2023-05-20T08:01:15;19.37;;;12.73;;
8421;SDS011;4248;48.196;10.924;2023-05-20T08:03:41;19.30;;;11.93;;
8421;SDS011;4248;48.196;10.924;2023-05-20T08:06:06;19.70;;;12.80;;
8421;SDS011;4248;48.196;10.924;2023-05-20T08:08:32;20.83;;;13.03;;
8421;SDS011;4248;48.196;10.924;2023-05-20T08:10:58;19.40;;;13.30;;
8421;SDS011;4248;48.196;10.924;2023-05-20T08:13:25;20.70;;;13.17;;
8421;SDS011;4248;48.196;10.924;2023-05-20T08:15:52;19.13;;;12.20;;
8421;SDS011;4248;48.196;10.924;2023-05-20T08:18:18;21.57;;;13.10;;
8421;SDS011;4248;48.196;10.924;2023-05-20T08:20:44;18.07;;;11.50;;
8421;SDS011;4248;48.196;10.924;2023-05-20T08:23:10;18.83;;;12.17;;
8421;SDS011;4248;48.196;10.924;2023-05-20T08:25:35;17.87;;;11.50;;
8421;SDS011;4248;48.196;10.924;2023-05-20T08:28:02;19.33;;;11.83;;
8421;SDS011;4248;48.196;10.924;2023-05-20T08:30:29;15.87;;;11.97;;
8421;SDS011;4248;48.196;10.924;2023-05-20T08:32:55;16.13;;;11.77;;
8421;SDS011;4248;48.196;10.924;2023-05-20T08:35:22;17.90;;;11.30;;
8421;SDS011;4248;48.196;10.924;2023-05-20T08:37:47;17.43;;;12.20;;
8421;SDS011;4248;48.196;10.924;2023-05-20T08:40:13;16.90;;;11.50;;
8421;SDS011;4248;48.196;10.924;2023-05-20T08:42:40;17.50;;;12.53;;
8421;SDS011;4248;48.196;10.924;2023-05-20T08:45:11;17.13;;;11.13;;
8421;SDS011;4248;48.196;10.924;2023-05-20T08:47:40;19.30;;;11.90;;
8421;SDS011;4248;48.196;10.924;2023-05-20T08:50:10;18.60;;;12.70;;
8421;SDS011;4248;48.196;10.924;2023-05-20T08:52:42;20.60;;;11.27;;
8421;SDS011;4248;48.196;10.924;2023-05-20T08:55:21;20.67;;;12.30;;
8421;SDS011;4248;48.196;10.924;2023-05-20T08:57:50;18.67;;;11.33;;
8421;SDS011;4248;48.196;10.924;2023-05-20T09:00:19;15.03;;;10.80;;
8421;SDS011;4248;48.196;10.924;2023-05-20T09:02:51;18.23;;;11.10;;
8421;SDS011;4248;48.196;10.924;2023-05-20T09:05:17;20.53;;;10.87;;
8421;SDS011;4248;48.196;10.924;2023-05-20T09:07:43;16.20;;;11.20;;
8421;SDS011;4248;48.196;10.924;2023-05-20T09:10:09;16.17;;;11.77;;
8421;SDS011;4248;48.196;10.924;2023-05-20T09:12:35;18.20;;;11.53;;
8421;SDS011;4248;48.196;10.924;2023-05-20T09:15:02;15.90;;;11.33;;
8421;SDS011;4248;48.196;10.924;2023-05-20T09:17:28;17.73;;;10.93;;
8421;SDS011;4248;48.196;10.924;2023-05-20T09:19:54;15.10;;;11.00;;
8421;SDS011;4248;48.196;10.924;2023-05-20T09:22:29;20.23;;;11.70;;
8421;SDS011;4248;48.196;10.924;2023-05-20T09:24:55;15.90;;;10.83;;
8421;SDS011;4248;48.196;10.924;2023-05-20T09:27:21;18.40;;;11.67;;
8421;SDS011;4248;48.196;10.924;2023-05-20T09:29:48;21.13;;;10.20;;
8421;SDS011;4248;48.196;10.924;2023-05-20T09:32:14;15.40;;;10.47;;
8421;SDS011;4248;48.196;10.924;2023-05-20T09:34:40;15.37;;;10.20;;
8421;SDS011;4248;48.196;10.924;2023-05-20T09:37:07;14.03;;;10.20;;
8421;SDS011;4248;48.196;10.924;2023-05-20T09:39:38;12.33;;;9.93;;
8421;SDS011;4248;48.196;10.924;2023-05-20T09:42:14;13.00;;;9.90;;
8421;SDS011;4248;48.196;10.924;2023-05-20T09:44:45;15.80;;;10.30;;
8421;SDS011;4248;48.196;10.924;2023-05-20T09:47:13;14.57;;;10.43;;
8421;SDS011;4248;48.196;10.924;2023-05-20T09:49:41;16.50;;;10.50;;
8421;SDS011;4248;48.196;10.924;2023-05-20T09:52:07;13.23;;;10.50;;
8421;SDS011;4248;48.196;10.924;2023-05-20T09:54:34;12.70;;;9.87;;
8421;SDS011;4248;48.196;10.924;2023-05-20T09:57:00;14.70;;;10.90;;
8421;SDS011;4248;48.196;10.924;2023-05-20T09:59:29;13.67;;;9.80;;
8421;SDS011;4248;48.196;10.924;2023-05-20T10:01:56;13.10;;;9.60;;
8421;SDS011;4248;48.196;10.924;2023-05-20T10:04:22;12.20;;;9.73;;
8421;SDS011;4248;48.196;10.924;2023-05-20T10:15:33;13.17;;;9.63;;
8421;SDS011;4248;48.196;10.924;2023-05-20T10:21:13;12.17;;;7.53;;
8421;SDS011;4248;48.196;10.924;2023-05-20T10:23:40;11.77;;;7.60;;
8421;SDS011;4248;48.196;10.924;2023-05-20T10:26:06;10.10;;;7.90;;
8421;SDS011;4248;48.196;10.924;2023-05-20T10:28:33;9.43;;;7.20;;
8421;SDS011;4248;48.196;10.924;2023-05-20T10:31:02;9.73;;;6.77;;
8421;SDS011;4248;48.196;10.924;2023-05-20T10:33:41;16.13;;;7.63;;
8421;SDS011;4248;48.196;10.924;2023-05-20T10:36:08;10.60;;;7.20;;
8421;SDS011;4248;48.196;10.924;2023-05-20T10:38:33;12.07;;;7.60;;
8421;SDS011;4248;48.196;10.924;2023-05-20T10:41:08;13.10;;;8.77;;
8421;SDS011;4248;48.196;10.924;2023-05-20T10:43:35;13.40;;;7.87;;
8421;SDS011;4248;48.196;10.924;2023-05-20T10:46:01;11.43;;;7.60;;
8421;SDS011;4248;48.196;10.924;2023-05-20T10:48:27;12.90;;;8.80;;
8421;SDS011;4248;48.196;10.924;2023-05-20T10:50:57;13.60;;;8.87;;
8421;SDS011;4248;48.196;10.924;2023-05-20T10:53:27;16.80;;;7.40;;
8421;SDS011;4248;48.196;10.924;2023-05-20T10:56:02;10.77;;;7.63;;
8421;SDS011;4248;48.196;10.924;2023-05-20T10:58:34;11.37;;;7.80;;
8421;SDS011;4248;48.196;10.924;2023-05-20T11:01:01;12.10;;;7.93;;
8421;SDS011;4248;48.196;10.924;2023-05-20T11:03:27;15.17;;;8.83;;
8421;SDS011;4248;48.196;10.924;2023-05-20T11:05:53;12.43;;;8.53;;
8421;SDS011;4248;48.196;10.924;2023-05-20T11:08:19;12.30;;;8.50;;
8421;SDS011;4248;48.196;10.924;2023-05-20T11:10:45;12.73;;;9.37;;
8421;SDS011;4248;48.196;10.924;2023-05-20T11:13:11;12.83;;;8.27;;
8421;SDS011;4248;48.196;10.924;2023-05-20T11:15:39;10.33;;;7.10;;
8421;SDS011;4248;48.196;10.924;2023-05-20T11:18:05;10.37;;;6.80;;
8421;SDS011;4248;48.196;10.924;2023-05-20T11:20:30;13.50;;;7.37;;
8421;SDS011;4248;48.196;10.924;2023-05-20T11:22:59;10.63;;;6.60;;
8421;SDS011;4248;48.196;10.924;2023-05-20T11:25:26;10.03;;;6.80;;
8421;SDS011;4248;48.196;10.924;2023-05-20T11:27:52;13.63;;;7.17;;
8421;SDS011;4248;48.196;10.924;2023-05-20T11:30:18;10.87;;;6.83;;
8421;SDS011;4248;48.196;10.924;2023-05-20T11:33:00;9.63;;;5.83;;
8421;SDS011;4248;48.196;10.924;2023-05-20T11:35:29;9.57;;;5.77;;
8421;SDS011;4248;48.196;10.924;2023-05-20T11:38:03;9.37;;;6.57;;
8421;SDS011;4248;48.196;10.924;2023-05-20T11:40:30;13.20;;;6.73;;
8421;SDS011;4248;48.196;10.924;2023-05-20T11:43:00;8.93;;;6.67;;
8421;SDS011;4248;48.196;10.924;2023-05-20T11:45:36;9.97;;;6.40;;
8421;SDS011;4248;48.196;10.924;2023-05-20T11:48:08;12.43;;;6.70;;
8421;SDS011;4248;48.196;10.924;2023-05-20T11:50:39;8.40;;;6.43;;
8421;SDS011;4248;48.196;10.924;2023-05-20T11:53:07;9.53;;;6.30;;
8421;SDS011;4248;48.196;10.924;2023-05-20T11:58:29;9.63;;;6.90;;
8421;SDS011;4248;48.196;10.924;2023-05-20T12:00:55;9.40;;;7.13;;
8421;SDS011;4248;48.196;10.924;2023-05-20T12:03:21;8.90;;;6.57;;
8421;SDS011;4248;48.196;10.924;2023-05-20T12:05:47;9.60;;;6.10;;
8421;SDS011;4248;48.196;10.924;2023-05-20T12:08:14;11.77;;;7.00;;
8421;SDS011;4248;48.196;10.924;2023-05-20T12:10:40;9.27;;;6.03;;
8421;SDS011;4248;48.196;10.924;2023-05-20T12:13:06;9.20;;;5.90;;
8421;SDS011;4248;48.196;10.924;2023-05-20T12:15:36;8.23;;;5.80;;
8421;SDS011;4248;48.196;10.924;2023-05-20T12:18:02;9.03;;;5.50;;
8421;SDS011;4248;48.196;10.924;2023-05-20T12:20:27;9.23;;;5.43;;
8421;SDS011;4248;48.196;10.924;2023-05-20T12:22:54;9.10;;;5.23;;
8421;SDS011;4248;48.196;10.924;2023-05-20T12:25:20;6.60;;;5.10;;
8421;SDS011;4248;48.196;10.924;2023-05-20T12:27:46;11.07;;;5.13;;
8421;SDS011;4248;48.196;10.924;2023-05-20T12:30:16;6.83;;;4.20;;
8421;SDS011;4248;48.196;10.924;2023-05-20T12:32:43;5.40;;;3.80;;
8421;SDS011;4248;48.196;10.924;2023-05-20T12:35:10;9.20;;;3.97;;
8421;SDS011;4248;48.196;10.924;2023-05-20T12:37:36;6.33;;;4.10;;
8421;SDS011;4248;48.196;10.924;2023-05-20T12:40:05;6.73;;;4.00;;
8421;SDS011;4248;48.196;10.924;2023-05-20T12:42:35;7.73;;;4.43;;
8421;SDS011;4248;48.196;10.924;2023-05-20T12:45:01;7.17;;;4.40;;
8421;SDS011;4248;48.196;10.924;2023-05-20T12:47:27;7.20;;;5.03;;
8421;SDS011;4248;48.196;10.924;2023-05-20T12:49:53;7.30;;;4.13;;
8421;SDS011;4248;48.196;10.924;2023-05-20T12:52:19;7.50;;;4.93;;
8421;SDS011;4248;48.196;10.924;2023-05-20T12:54:45;6.87;;;4.40;;
8421;SDS011;4248;48.196;10.924;2023-05-20T12:57:10;8.13;;;4.10;;
8421;SDS011;4248;48.196;10.924;2023-05-20T12:59:36;9.33;;;4.40;;
8421;SDS011;4248;48.196;10.924;2023-05-20T13:02:02;6.43;;;4.20;;
8421;SDS011;4248;48.196;10.924;2023-05-20T13:04:28;9.27;;;5.53;;
8421;SDS011;4248;48.196;10.924;2023-05-20T13:06:53;7.73;;;5.20;;
8421;SDS011;4248;48.196;10.924;2023-05-20T13:09:19;6.90;;;4.33;;
8421;SDS011;4248;48.196;10.924;2023-05-20T13:11:45;8.40;;;4.50;;
8421;SDS011;4248;48.196;10.924;2023-05-20T13:14:11;8.90;;;4.50;;
8421;SDS011;4248;48.196;10.924;2023-05-20T13:16:37;7.20;;;4.60;;
8421;SDS011;4248;48.196;10.924;2023-05-20T13:19:02;6.33;;;4.30;;
8421;SDS011;4248;48.196;10.924;2023-05-20T13:21:28;5.57;;;3.83;;
8421;SDS011;4248;48.196;10.924;2023-05-20T13:23:54;6.60;;;3.80;;
8421;SDS011;4248;48.196;10.924;2023-05-20T13:26:20;6.73;;;3.87;;
8421;SDS011;4248;48.196;10.924;2023-05-20T13:28:45;5.50;;;3.40;;
8421;SDS011;4248;48.196;10.924;2023-05-20T13:31:11;6.33;;;3.90;;
8421;SDS011;4248;48.196;10.924;2023-05-20T13:33:37;5.80;;;3.30;;
8421;SDS011;4248;48.196;10.924;2023-05-20T13:36:02;5.50;;;3.60;;
8421;SDS011;4248;48.196;10.924;2023-05-20T13:38:28;6.70;;;3.33;;
8421;SDS011;4248;48.196;10.924;2023-05-20T13:40:54;10.30;;;3.70;;
8421;SDS011;4248;48.196;10.924;2023-05-20T13:43:23;5.43;;;3.73;;
8421;SDS011;4248;48.196;10.924;2023-05-20T13:45:52;15.17;;;4.87;;
8421;SDS011;4248;48.196;10.924;2023-05-20T13:48:18;10.13;;;4.13;;
8421;SDS011;4248;48.196;10.924;2023-05-20T13:50:44;8.57;;;4.97;;
8421;SDS011;4248;48.196;10.924;2023-05-20T13:53:09;11.17;;;4.30;;
8421;SDS011;4248;48.196;10.924;2023-05-20T13:55:37;10.63;;;5.27;;
8421;SDS011;4248;48.196;10.924;2023-05-20T13:58:03;8.10;;;4.90;;
8421;SDS011;4248;48.196;10.924;2023-05-20T14:00:32;8.17;;;5.20;;
8421;SDS011;4248;48.196;10.924;2023-05-20T14:03:02;6.47;;;4.10;;
8421;SDS011;4248;48.196;10.924;2023-05-20T14:05:32;9.57;;;5.77;;
8421;SDS011;4248;48.196;10.924;2023-05-20T14:07:58;8.27;;;5.40;;
8421;SDS011;4248;48.196;10.924;2023-05-20T14:10:24;9.10;;;4.97;;
8421;SDS011;4248;48.196;10.924;2023-05-20T14:12:54;8.07;;;5.00;;
8421;SDS011;4248;48.196;10.924;2023-05-20T14:15:21;8.20;;;5.43;;
8421;SDS011;4248;48.196;10.924;2023-05-20T14:17:47;7.00;;;5.27;;
8421;SDS011;4248;48.196;10.924;2023-05-20T14:20:12;7.97;;;5.60;;
8421;SDS011;4248;48.196;10.924;2023-05-20T14:22:38;8.00;;;5.70;;
8421;SDS011;4248;48.196;10.924;2023-05-20T14:25:04;13.90;;;6.23;;
8421;SDS011;4248;48.196;10.924;2023-05-20T14:27:30;15.33;;;6.70;;
8421;SDS011;4248;48.196;10.924;2023-05-20T14:29:56;9.10;;;5.53;;
8421;SDS011;4248;48.196;10.924;2023-05-20T14:32:21;8.10;;;5.70;;
8421;SDS011;4248;48.196;10.924;2023-05-20T14:34:47;9.67;;;5.90;;
8421;SDS011;4248;48.196;10.924;2023-05-20T14:37:12;9.80;;;6.30;;
8421;SDS011;4248;48.196;10.924;2023-05-20T14:39:39;8.93;;;5.90;;
8421;SDS011;4248;48.196;10.924;2023-05-20T14:42:05;11.50;;;5.50;;
8421;SDS011;4248;48.196;10.924;2023-05-20T14:44:30;10.50;;;6.57;;
8421;SDS011;4248;48.196;10.924;2023-05-20T14:46:56;9.30;;;6.27;;
8421;SDS011;4248;48.196;10.924;2023-05-20T14:49:22;12.80;;;6.60;;
8421;SDS011;4248;48.196;10.924;2023-05-20T14:51:47;8.70;;;5.33;;
8421;SDS011;4248;48.196;10.924;2023-05-20T14:54:13;8.00;;;6.00;;
8421;SDS011;4248;48.196;10.924;2023-05-20T14:56:40;10.17;;;6.20;;
8421;SDS011;4248;48.196;10.924;2023-05-20T14:59:06;9.40;;;5.70;;
8421;SDS011;4248;48.196;10.924;2023-05-20T15:01:32;10.00;;;6.77;;